sensor_id;sensor_type;location;lat;lon;timestamp;temperature;humidity
29687;DHT22;16599;47.078;15.536;2022-09-09T00:02:20;12.60;99.90
29687;DHT22;16599;47.078;15.536;2022-09-09T00:08:45;12.40;99.90
29687;DHT22;16599;47.078;15.536;2022-09-09T00:15:19;12.70;99.90
29687;DHT22;16599;47.078;15.536;2022-09-09T00:21:11;12.10;99.90
29687;DHT22;16599;47.078;15.536;2022-09-09T00:27:36;12.30;99.90
29687;DHT22;16599;47.078;15.536;2022-09-09T00:33:46;12.10;99.90
29687;DHT22;16599;47.078;15.536;2022-09-09T00:36:16;11.90;99.90
29687;DHT22;16599;47.078;15.536;2022-09-09T00:38:51;12.00;99.90
29687;DHT22;16599;47.078;15.536;2022-09-09T00:45:15;12.20;99.90
29687;DHT22;16599;47.078;15.536;2022-09-09T00:47:49;11.90;99.90
29687;DHT22;16599;47.078;15.536;2022-09-09T01:00:31;12.40;99.90
29687;DHT22;16599;47.078;15.536;2022-09-09T01:18:58;12.00;99.90
29687;DHT22;16599;47.078;15.536;2022-09-09T01:22:09;11.60;99.90
29687;DHT22;16599;47.078;15.536;2022-09-09T01:24:42;11.60;99.90
29687;DHT22;16599;47.078;15.536;2022-09-09T01:27:13;11.70;99.90
29687;DHT22;16599;47.078;15.536;2022-09-09T01:37:20;11.50;99.90
29687;DHT22;16599;47.078;15.536;2022-09-09T01:39:47;11.50;99.90
29687;DHT22;16599;47.078;15.536;2022-09-09T01:42:16;11.30;99.90
29687;DHT22;16599;47.078;15.536;2022-09-09T01:44:42;11.40;99.90
29687;DHT22;16599;47.078;15.536;2022-09-09T01:47:09;11.50;99.90
29687;DHT22;16599;47.078;15.536;2022-09-09T01:49:36;11.40;99.90
29687;DHT22;16599;47.078;15.536;2022-09-09T01:52:03;11.50;99.90
29687;DHT22;16599;47.078;15.536;2022-09-09T01:54:31;11.50;99.90
29687;DHT22;16599;47.078;15.536;2022-09-09T01:57:30;11.50;99.90
29687;DHT22;16599;47.078;15.536;2022-09-09T02:02:46;11.50;99.90
29687;DHT22;16599;47.078;15.536;2022-09-09T02:05:38;11.70;99.90
29687;DHT22;16599;47.078;15.536;2022-09-09T02:08:33;11.80;99.90
29687;DHT22;16599;47.078;15.536;2022-09-09T02:11:06;11.70;99.90
29687;DHT22;16599;47.078;15.536;2022-09-09T02:13:37;11.50;99.90
29687;DHT22;16599;47.078;15.536;2022-09-09T02:19:56;11.70;99.90
29687;DHT22;16599;47.078;15.536;2022-09-09T02:22:28;11.80;99.90
29687;DHT22;16599;47.078;15.536;2022-09-09T02:24:58;11.70;99.90
29687;DHT22;16599;47.078;15.536;2022-09-09T02:27:26;11.60;99.90
29687;DHT22;16599;47.078;15.536;2022-09-09T02:29:56;11.40;99.90
29687;DHT22;16599;47.078;15.536;2022-09-09T02:32:24;11.40;99.90
29687;DHT22;16599;47.078;15.536;2022-09-09T02:34:57;11.50;99.90
29687;DHT22;16599;47.078;15.536;2022-09-09T02:37:31;11.40;99.90
29687;DHT22;16599;47.078;15.536;2022-09-09T02:40:00;11.30;99.90
29687;DHT22;16599;47.078;15.536;2022-09-09T02:42:27;11.50;99.90
29687;DHT22;16599;47.078;15.536;2022-09-09T02:44:54;11.60;99.90
29687;DHT22;16599;47.078;15.536;2022-09-09T02:50:12;11.70;99.90
29687;DHT22;16599;47.078;15.536;2022-09-09T02:53:02;11.80;99.90
29687;DHT22;16599;47.078;15.536;2022-09-09T02:55:43;11.80;99.90
29687;DHT22;16599;47.078;15.536;2022-09-09T02:58:14;11.70;99.90
29687;DHT22;16599;47.078;15.536;2022-09-09T03:00:46;11.60;99.90
29687;DHT22;16599;47.078;15.536;2022-09-09T03:03:14;11.70;99.90
29687;DHT22;16599;47.078;15.536;2022-09-09T03:05:43;11.90;99.90
29687;DHT22;16599;47.078;15.536;2022-09-09T03:08:11;12.00;99.90
29687;DHT22;16599;47.078;15.536;2022-09-09T03:10:38;11.90;99.90
29687;DHT22;16599;47.078;15.536;2022-09-09T03:13:05;11.90;99.90
29687;DHT22;16599;47.078;15.536;2022-09-09T03:15:32;12.00;99.90
29687;DHT22;16599;47.078;15.536;2022-09-09T03:17:59;12.20;99.90
29687;DHT22;16599;47.078;15.536;2022-09-09T03:20:28;12.20;99.90
29687;DHT22;16599;47.078;15.536;2022-09-09T03:22:55;12.20;99.90
29687;DHT22;16599;47.078;15.536;2022-09-09T03:25:23;12.20;99.90
29687;DHT22;16599;47.078;15.536;2022-09-09T03:27:51;12.20;99.90
29687;DHT22;16599;47.078;15.536;2022-09-09T03:30:25;12.20;99.90
29687;DHT22;16599;47.078;15.536;2022-09-09T03:32:52;12.10;99.90
29687;DHT22;16599;47.078;15.536;2022-09-09T03:35:19;12.10;99.90
29687;DHT22;16599;47.078;15.536;2022-09-09T03:37:46;12.20;99.90
29687;DHT22;16599;47.078;15.536;2022-09-09T03:40:13;12.20;99.90
29687;DHT22;16599;47.078;15.536;2022-09-09T03:42:40;12.30;99.90
29687;DHT22;16599;47.078;15.536;2022-09-09T03:45:09;12.40;99.90
29687;DHT22;16599;47.078;15.536;2022-09-09T03:47:37;12.40;99.90
29687;DHT22;16599;47.078;15.536;2022-09-09T03:50:06;12.40;99.90
29687;DHT22;16599;47.078;15.536;2022-09-09T03:52:36;12.50;99.90
29687;DHT22;16599;47.078;15.536;2022-09-09T03:55:04;12.50;99.90
29687;DHT22;16599;47.078;15.536;2022-09-09T03:57:31;12.50;99.90
29687;DHT22;16599;47.078;15.536;2022-09-09T03:59:58;12.50;99.90
29687;DHT22;16599;47.078;15.536;2022-09-09T04:02:27;12.40;99.90
29687;DHT22;16599;47.078;15.536;2022-09-09T04:04:54;12.30;99.90
29687;DHT22;16599;47.078;15.536;2022-09-09T04:07:21;12.30;99.90
29687;DHT22;16599;47.078;15.536;2022-09-09T04:09:48;12.20;99.90
29687;DHT22;16599;47.078;15.536;2022-09-09T04:12:15;11.90;99.90
29687;DHT22;16599;47.078;15.536;2022-09-09T04:14:43;11.80;99.90
29687;DHT22;16599;47.078;15.536;2022-09-09T04:17:09;11.90;99.90
29687;DHT22;16599;47.078;15.536;2022-09-09T04:19:36;11.90;99.90
29687;DHT22;16599;47.078;15.536;2022-09-09T04:22:03;11.80;99.90
29687;DHT22;16599;47.078;15.536;2022-09-09T04:24:30;11.40;99.90
29687;DHT22;16599;47.078;15.536;2022-09-09T04:26:57;11.40;99.90
29687;DHT22;16599;47.078;15.536;2022-09-09T04:29:24;11.40;99.90
29687;DHT22;16599;47.078;15.536;2022-09-09T04:31:51;11.50;99.90
29687;DHT22;16599;47.078;15.536;2022-09-09T04:34:18;11.60;99.90
29687;DHT22;16599;47.078;15.536;2022-09-09T04:36:44;11.70;99.90
29687;DHT22;16599;47.078;15.536;2022-09-09T04:39:12;11.70;99.90
29687;DHT22;16599;47.078;15.536;2022-09-09T04:41:39;11.50;99.90
29687;DHT22;16599;47.078;15.536;2022-09-09T04:44:05;11.60;99.90
29687;DHT22;16599;47.078;15.536;2022-09-09T04:46:32;11.70;99.90
29687;DHT22;16599;47.078;15.536;2022-09-09T04:49:00;11.90;99.90
29687;DHT22;16599;47.078;15.536;2022-09-09T04:51:27;11.80;99.90
29687;DHT22;16599;47.078;15.536;2022-09-09T04:53:54;11.80;99.90
29687;DHT22;16599;47.078;15.536;2022-09-09T04:56:21;11.90;99.90
29687;DHT22;16599;47.078;15.536;2022-09-09T04:58:48;11.90;99.90
29687;DHT22;16599;47.078;15.536;2022-09-09T05:01:26;11.90;99.90
29687;DHT22;16599;47.078;15.536;2022-09-09T05:03:53;11.90;99.90
29687;DHT22;16599;47.078;15.536;2022-09-09T05:06:21;12.00;99.90
29687;DHT22;16599;47.078;15.536;2022-09-09T05:08:48;12.00;99.90
29687;DHT22;16599;47.078;15.536;2022-09-09T05:11:22;12.10;99.90
29687;DHT22;16599;47.078;15.536;2022-09-09T05:13:53;12.20;99.90
29687;DHT22;16599;47.078;15.536;2022-09-09T05:16:20;12.20;99.90
29687;DHT22;16599;47.078;15.536;2022-09-09T05:18:49;12.20;99.90
29687;DHT22;16599;47.078;15.536;2022-09-09T05:21:19;12.30;99.90
29687;DHT22;16599;47.078;15.536;2022-09-09T05:23:46;12.20;99.90
29687;DHT22;16599;47.078;15.536;2022-09-09T05:26:16;12.20;99.90
29687;DHT22;16599;47.078;15.536;2022-09-09T05:28:44;12.30;99.90
29687;DHT22;16599;47.078;15.536;2022-09-09T05:31:12;12.30;99.90
29687;DHT22;16599;47.078;15.536;2022-09-09T05:33:44;12.30;99.90
29687;DHT22;16599;47.078;15.536;2022-09-09T05:36:14;12.20;99.90
29687;DHT22;16599;47.078;15.536;2022-09-09T05:38:42;12.20;99.90
29687;DHT22;16599;47.078;15.536;2022-09-09T05:41:10;12.30;99.90
29687;DHT22;16599;47.078;15.536;2022-09-09T05:43:38;12.40;99.90
29687;DHT22;16599;47.078;15.536;2022-09-09T05:46:10;12.50;99.90
29687;DHT22;16599;47.078;15.536;2022-09-09T05:48:42;12.70;99.90
29687;DHT22;16599;47.078;15.536;2022-09-09T05:51:14;12.70;99.90
29687;DHT22;16599;47.078;15.536;2022-09-09T05:53:42;12.80;99.90
29687;DHT22;16599;47.078;15.536;2022-09-09T05:56:11;12.90;99.90
29687;DHT22;16599;47.078;15.536;2022-09-09T05:58:38;13.10;99.90
29687;DHT22;16599;47.078;15.536;2022-09-09T06:01:08;13.20;99.90
29687;DHT22;16599;47.078;15.536;2022-09-09T06:03:36;13.20;99.90
29687;DHT22;16599;47.078;15.536;2022-09-09T06:06:08;13.30;99.90
29687;DHT22;16599;47.078;15.536;2022-09-09T06:08:36;13.40;99.90
29687;DHT22;16599;47.078;15.536;2022-09-09T06:11:15;13.50;99.90
29687;DHT22;16599;47.078;15.536;2022-09-09T06:13:42;13.60;99.90
29687;DHT22;16599;47.078;15.536;2022-09-09T06:16:18;13.70;99.90
29687;DHT22;16599;47.078;15.536;2022-09-09T06:18:45;13.70;99.90
29687;DHT22;16599;47.078;15.536;2022-09-09T06:21:19;13.70;99.90
29687;DHT22;16599;47.078;15.536;2022-09-09T06:23:47;13.80;99.90
29687;DHT22;16599;47.078;15.536;2022-09-09T06:26:20;13.90;99.90
29687;DHT22;16599;47.078;15.536;2022-09-09T06:28:48;14.00;99.90
29687;DHT22;16599;47.078;15.536;2022-09-09T06:31:17;14.00;99.90
29687;DHT22;16599;47.078;15.536;2022-09-09T06:33:53;14.10;99.90
29687;DHT22;16599;47.078;15.536;2022-09-09T06:36:26;14.30;99.90
29687;DHT22;16599;47.078;15.536;2022-09-09T06:38:54;14.40;99.90
29687;DHT22;16599;47.078;15.536;2022-09-09T06:45:12;14.70;99.90
29687;DHT22;16599;47.078;15.536;2022-09-09T06:47:39;14.90;99.90
29687;DHT22;16599;47.078;15.536;2022-09-09T06:50:34;15.00;99.90
29687;DHT22;16599;47.078;15.536;2022-09-09T06:53:05;15.30;99.90
29687;DHT22;16599;47.078;15.536;2022-09-09T06:55:32;15.30;99.90
29687;DHT22;16599;47.078;15.536;2022-09-09T06:58:10;15.30;99.90
29687;DHT22;16599;47.078;15.536;2022-09-09T07:00:37;15.30;99.90
29687;DHT22;16599;47.078;15.536;2022-09-09T07:03:05;15.40;99.90
29687;DHT22;16599;47.078;15.536;2022-09-09T07:09:22;15.70;99.90
29687;DHT22;16599;47.078;15.536;2022-09-09T07:11:51;15.60;99.90
29687;DHT22;16599;47.078;15.536;2022-09-09T07:14:20;15.50;99.90
29687;DHT22;16599;47.078;15.536;2022-09-09T07:16:48;15.60;99.90
29687;DHT22;16599;47.078;15.536;2022-09-09T07:19:15;15.60;99.90
29687;DHT22;16599;47.078;15.536;2022-09-09T07:21:43;15.70;99.90
29687;DHT22;16599;47.078;15.536;2022-09-09T07:24:10;15.70;99.90
29687;DHT22;16599;47.078;15.536;2022-09-09T07:26:39;15.70;99.90
29687;DHT22;16599;47.078;15.536;2022-09-09T07:29:43;15.60;99.90
29687;DHT22;16599;47.078;15.536;2022-09-09T07:32:38;15.60;99.90
29687;DHT22;16599;47.078;15.536;2022-09-09T07:39:07;15.70;99.90
29687;DHT22;16599;47.078;15.536;2022-09-09T07:45:33;15.70;99.90
29687;DHT22;16599;47.078;15.536;2022-09-09T07:48:01;15.80;99.90
29687;DHT22;16599;47.078;15.536;2022-09-09T07:50:28;15.80;99.90
29687;DHT22;16599;47.078;15.536;2022-09-09T07:52:55;15.80;99.90
29687;DHT22;16599;47.078;15.536;2022-09-09T07:55:23;15.80;99.90
29687;DHT22;16599;47.078;15.536;2022-09-09T07:58:22;15.80;99.90
29687;DHT22;16599;47.078;15.536;2022-09-09T08:00:48;15.80;99.90
29687;DHT22;16599;47.078;15.536;2022-09-09T08:03:16;15.80;99.90
29687;DHT22;16599;47.078;15.536;2022-09-09T08:05:43;15.80;99.90
29687;DHT22;16599;47.078;15.536;2022-09-09T08:08:10;15.90;99.90
29687;DHT22;16599;47.078;15.536;2022-09-09T08:10:37;15.90;99.90
29687;DHT22;16599;47.078;15.536;2022-09-09T08:13:04;16.00;99.90
29687;DHT22;16599;47.078;15.536;2022-09-09T08:19:43;16.10;99.90
29687;DHT22;16599;47.078;15.536;2022-09-09T08:26:09;16.30;99.90
29687;DHT22;16599;47.078;15.536;2022-09-09T08:32:38;16.30;99.90
29687;DHT22;16599;47.078;15.536;2022-09-09T08:35:10;16.30;99.90
29687;DHT22;16599;47.078;15.536;2022-09-09T08:37:37;16.30;99.90
29687;DHT22;16599;47.078;15.536;2022-09-09T08:40:05;16.30;99.90
29687;DHT22;16599;47.078;15.536;2022-09-09T08:42:41;16.30;99.90
29687;DHT22;16599;47.078;15.536;2022-09-09T08:45:24;16.40;99.90
29687;DHT22;16599;47.078;15.536;2022-09-09T08:50:44;16.50;99.90
29687;DHT22;16599;47.078;15.536;2022-09-09T08:53:23;16.40;99.90
29687;DHT22;16599;47.078;15.536;2022-09-09T08:55:57;16.40;99.90
29687;DHT22;16599;47.078;15.536;2022-09-09T08:58:31;16.50;99.90
29687;DHT22;16599;47.078;15.536;2022-09-09T09:05:02;16.40;99.90
29687;DHT22;16599;47.078;15.536;2022-09-09T09:11:50;16.50;99.90
29687;DHT22;16599;47.078;15.536;2022-09-09T09:17:58;16.90;99.90
29687;DHT22;16599;47.078;15.536;2022-09-09T09:23:33;17.30;99.90
29687;DHT22;16599;47.078;15.536;2022-09-09T09:26:07;17.40;99.90
29687;DHT22;16599;47.078;15.536;2022-09-09T09:28:36;17.40;99.90
29687;DHT22;16599;47.078;15.536;2022-09-09T09:31:06;17.50;99.90
29687;DHT22;16599;47.078;15.536;2022-09-09T09:33:49;17.70;99.90
29687;DHT22;16599;47.078;15.536;2022-09-09T09:36:17;18.10;99.90
29687;DHT22;16599;47.078;15.536;2022-09-09T09:38:58;18.40;99.90
29687;DHT22;16599;47.078;15.536;2022-09-09T09:49:03;19.50;99.90
29687;DHT22;16599;47.078;15.536;2022-09-09T09:51:33;19.50;99.90
29687;DHT22;16599;47.078;15.536;2022-09-09T09:54:18;19.40;99.90
29687;DHT22;16599;47.078;15.536;2022-09-09T09:56:49;19.20;99.90
29687;DHT22;16599;47.078;15.536;2022-09-09T09:59:32;19.10;99.90
29687;DHT22;16599;47.078;15.536;2022-09-09T10:02:14;19.10;99.90
29687;DHT22;16599;47.078;15.536;2022-09-09T10:04:41;19.10;99.90
29687;DHT22;16599;47.078;15.536;2022-09-09T10:07:15;19.20;99.90
29687;DHT22;16599;47.078;15.536;2022-09-09T10:29:14;19.50;99.90
29687;DHT22;16599;47.078;15.536;2022-09-09T10:32:06;19.50;99.90
29687;DHT22;16599;47.078;15.536;2022-09-09T10:34:58;19.50;99.90
29687;DHT22;16599;47.078;15.536;2022-09-09T10:40:44;19.50;99.90
29687;DHT22;16599;47.078;15.536;2022-09-09T10:56:24;20.00;99.90
29687;DHT22;16599;47.078;15.536;2022-09-09T11:21:50;19.40;99.90
29687;DHT22;16599;47.078;15.536;2022-09-09T11:36:16;19.30;99.90
29687;DHT22;16599;47.078;15.536;2022-09-09T11:38:51;19.30;99.90
29687;DHT22;16599;47.078;15.536;2022-09-09T11:41:20;19.20;99.90
29687;DHT22;16599;47.078;15.536;2022-09-09T11:43:52;19.20;99.90
29687;DHT22;16599;47.078;15.536;2022-09-09T11:46:20;19.20;99.90
29687;DHT22;16599;47.078;15.536;2022-09-09T11:49:06;19.10;99.90
29687;DHT22;16599;47.078;15.536;2022-09-09T11:56:45;19.00;99.90
29687;DHT22;16599;47.078;15.536;2022-09-09T11:59:29;19.20;99.90
29687;DHT22;16599;47.078;15.536;2022-09-09T12:15:28;19.50;99.90
29687;DHT22;16599;47.078;15.536;2022-09-09T12:17:57;19.50;99.90
29687;DHT22;16599;47.078;15.536;2022-09-09T12:20:36;19.40;99.90
29687;DHT22;16599;47.078;15.536;2022-09-09T12:27:07;19.40;99.90
29687;DHT22;16599;47.078;15.536;2022-09-09T12:33:37;19.50;99.90
29687;DHT22;16599;47.078;15.536;2022-09-09T12:36:14;19.50;99.90
29687;DHT22;16599;47.078;15.536;2022-09-09T12:43:47;19.50;99.90
29687;DHT22;16599;47.078;15.536;2022-09-09T12:46:27;19.60;99.90
29687;DHT22;16599;47.078;15.536;2022-09-09T12:53:35;19.70;99.90
29687;DHT22;16599;47.078;15.536;2022-09-09T12:59:38;19.40;99.90
29687;DHT22;16599;47.078;15.536;2022-09-09T13:05:58;19.30;99.90
29687;DHT22;16599;47.078;15.536;2022-09-09T13:08:42;19.30;99.90
29687;DHT22;16599;47.078;15.536;2022-09-09T13:11:13;19.30;99.90
29687;DHT22;16599;47.078;15.536;2022-09-09T13:13:43;19.30;99.90
29687;DHT22;16599;47.078;15.536;2022-09-09T13:16:26;19.30;99.90
29687;DHT22;16599;47.078;15.536;2022-09-09T13:19:16;19.30;99.90
29687;DHT22;16599;47.078;15.536;2022-09-09T13:21:43;19.30;99.90
29687;DHT22;16599;47.078;15.536;2022-09-09T13:24:30;19.20;99.90
29687;DHT22;16599;47.078;15.536;2022-09-09T13:29:55;19.20;99.90
29687;DHT22;16599;47.078;15.536;2022-09-09T13:32:25;19.10;99.90
29687;DHT22;16599;47.078;15.536;2022-09-09T13:34:58;19.20;99.90
29687;DHT22;16599;47.078;15.536;2022-09-09T13:39:58;18.90;99.90
29687;DHT22;16599;47.078;15.536;2022-09-09T13:42:33;18.90;99.90
29687;DHT22;16599;47.078;15.536;2022-09-09T13:45:17;18.80;99.90
29687;DHT22;16599;47.078;15.536;2022-09-09T13:51:50;18.90;99.90
29687;DHT22;16599;47.078;15.536;2022-09-09T13:54:19;18.80;99.90
29687;DHT22;16599;47.078;15.536;2022-09-09T13:56:47;18.70;99.90
29687;DHT22;16599;47.078;15.536;2022-09-09T13:59:17;18.60;99.90
29687;DHT22;16599;47.078;15.536;2022-09-09T14:01:46;18.50;99.90
29687;DHT22;16599;47.078;15.536;2022-09-09T14:54:54;18.30;99.90
29687;DHT22;16599;47.078;15.536;2022-09-09T14:57:21;18.40;99.90
29687;DHT22;16599;47.078;15.536;2022-09-09T14:59:48;18.30;99.90
29687;DHT22;16599;47.078;15.536;2022-09-09T15:02:16;18.20;99.90
29687;DHT22;16599;47.078;15.536;2022-09-09T15:04:43;18.20;99.90
29687;DHT22;16599;47.078;15.536;2022-09-09T15:07:22;18.20;99.90
29687;DHT22;16599;47.078;15.536;2022-09-09T15:24:29;18.00;99.90
29687;DHT22;16599;47.078;15.536;2022-09-09T15:26:56;18.00;99.90
29687;DHT22;16599;47.078;15.536;2022-09-09T15:29:44;18.00;99.90
29687;DHT22;16599;47.078;15.536;2022-09-09T15:55:11;18.10;99.90
29687;DHT22;16599;47.078;15.536;2022-09-09T16:20:37;17.80;99.90
29687;DHT22;16599;47.078;15.536;2022-09-09T16:23:04;17.60;99.90
29687;DHT22;16599;47.078;15.536;2022-09-09T16:32:50;17.70;99.90
29687;DHT22;16599;47.078;15.536;2022-09-09T17:27:56;17.10;99.90
29687;DHT22;16599;47.078;15.536;2022-09-09T17:56:28;16.70;99.90
29687;DHT22;16599;47.078;15.536;2022-09-09T18:02:50;16.70;99.90
29687;DHT22;16599;47.078;15.536;2022-09-09T18:13:00;16.80;99.90
29687;DHT22;16599;47.078;15.536;2022-09-09T18:15:27;16.70;99.90
29687;DHT22;16599;47.078;15.536;2022-09-09T18:18:34;16.70;99.90
29687;DHT22;16599;47.078;15.536;2022-09-09T18:21:03;16.70;99.90
29687;DHT22;16599;47.078;15.536;2022-09-09T18:23:36;16.70;99.90
29687;DHT22;16599;47.078;15.536;2022-09-09T18:29:31;16.70;99.90
29687;DHT22;16599;47.078;15.536;2022-09-09T18:31:58;16.80;99.90
29687;DHT22;16599;47.078;15.536;2022-09-09T18:34:25;16.80;99.90
29687;DHT22;16599;47.078;15.536;2022-09-09T18:36:54;16.60;99.90
29687;DHT22;16599;47.078;15.536;2022-09-09T18:42:32;16.50;99.90
29687;DHT22;16599;47.078;15.536;2022-09-09T18:44:59;16.50;99.90
29687;DHT22;16599;47.078;15.536;2022-09-09T18:47:26;16.40;99.90
29687;DHT22;16599;47.078;15.536;2022-09-09T18:49:53;16.40;99.90
29687;DHT22;16599;47.078;15.536;2022-09-09T18:52:21;16.30;99.90
29687;DHT22;16599;47.078;15.536;2022-09-09T18:54:48;16.30;99.90
29687;DHT22;16599;47.078;15.536;2022-09-09T18:57:16;16.30;99.90
29687;DHT22;16599;47.078;15.536;2022-09-09T18:59:44;16.30;99.90
29687;DHT22;16599;47.078;15.536;2022-09-09T19:02:11;16.40;99.90
29687;DHT22;16599;47.078;15.536;2022-09-09T19:04:37;16.30;99.90
29687;DHT22;16599;47.078;15.536;2022-09-09T19:07:04;16.20;99.90
29687;DHT22;16599;47.078;15.536;2022-09-09T19:09:31;16.20;99.90
29687;DHT22;16599;47.078;15.536;2022-09-09T19:12:00;16.30;99.90
29687;DHT22;16599;47.078;15.536;2022-09-09T19:14:28;16.30;99.90
29687;DHT22;16599;47.078;15.536;2022-09-09T19:16:55;16.20;99.90
29687;DHT22;16599;47.078;15.536;2022-09-09T19:19:25;16.20;99.90
29687;DHT22;16599;47.078;15.536;2022-09-09T19:21:52;16.30;99.90
29687;DHT22;16599;47.078;15.536;2022-09-09T19:24:26;16.20;99.90
29687;DHT22;16599;47.078;15.536;2022-09-09T19:26:56;16.30;99.90
29687;DHT22;16599;47.078;15.536;2022-09-09T19:29:25;16.30;99.90
29687;DHT22;16599;47.078;15.536;2022-09-09T19:32:04;16.20;99.90
29687;DHT22;16599;47.078;15.536;2022-09-09T19:34:51;16.30;99.90
29687;DHT22;16599;47.078;15.536;2022-09-09T19:37:50;16.30;99.90
29687;DHT22;16599;47.078;15.536;2022-09-09T19:43:59;16.20;99.90
29687;DHT22;16599;47.078;15.536;2022-09-09T19:46:29;16.20;99.90
29687;DHT22;16599;47.078;15.536;2022-09-09T19:52:42;16.30;99.90
29687;DHT22;16599;47.078;15.536;2022-09-09T19:55:09;16.40;99.90
29687;DHT22;16599;47.078;15.536;2022-09-09T19:57:36;16.30;99.90
29687;DHT22;16599;47.078;15.536;2022-09-09T20:00:04;16.40;99.90
29687;DHT22;16599;47.078;15.536;2022-09-09T20:13:01;16.10;99.90
29687;DHT22;16599;47.078;15.536;2022-09-09T20:15:28;16.10;99.90
29687;DHT22;16599;47.078;15.536;2022-09-09T20:17:55;16.10;99.90
29687;DHT22;16599;47.078;15.536;2022-09-09T20:31:31;15.70;99.90
29687;DHT22;16599;47.078;15.536;2022-09-09T20:33:58;15.40;99.90
29687;DHT22;16599;47.078;15.536;2022-09-09T20:40:25;15.40;99.90
29687;DHT22;16599;47.078;15.536;2022-09-09T20:42:58;15.20;99.90
29687;DHT22;16599;47.078;15.536;2022-09-09T20:45:53;15.30;99.90
29687;DHT22;16599;47.078;15.536;2022-09-09T20:48:23;15.20;99.90
29687;DHT22;16599;47.078;15.536;2022-09-09T20:50:53;15.20;99.90
29687;DHT22;16599;47.078;15.536;2022-09-09T20:53:22;15.20;99.90
29687;DHT22;16599;47.078;15.536;2022-09-09T20:55:49;15.20;99.90
29687;DHT22;16599;47.078;15.536;2022-09-09T20:58:16;15.20;99.90
29687;DHT22;16599;47.078;15.536;2022-09-09T21:00:43;15.20;99.90
29687;DHT22;16599;47.078;15.536;2022-09-09T21:07:03;15.20;99.90
29687;DHT22;16599;47.078;15.536;2022-09-09T21:09:33;15.20;99.90
29687;DHT22;16599;47.078;15.536;2022-09-09T21:27:33;15.40;99.90
29687;DHT22;16599;47.078;15.536;2022-09-09T21:33:46;15.30;99.90
29687;DHT22;16599;47.078;15.536;2022-09-09T21:36:13;15.40;99.90
29687;DHT22;16599;47.078;15.536;2022-09-09T21:54:19;15.00;99.90
29687;DHT22;16599;47.078;15.536;2022-09-09T22:57:37;15.00;99.90
29687;DHT22;16599;47.078;15.536;2022-09-09T23:08:09;15.00;99.90
29687;DHT22;16599;47.078;15.536;2022-09-09T23:29:24;14.80;99.90
29687;DHT22;16599;47.078;15.536;2022-09-09T23:50:11;14.60;99.90
